Time;durP1;ratioP1;P1;durP2;ratioP2;P2;SDS_P1;SDS_P2;PMS_P1;PMS_P2;Temp;Humidity;BMP_temperature;BMP_pressure;BME280_temperature;BME280_humidity;BME280_pressure;Samples;Min_cycle;Max_cycle;Signal;HPM_P1;HPM_P2
2022/12/29 00:00:10;;;;;;;1.00;1.00;;;5.20;66.80;;;;;;6151372;23;20382;-79
2022/12/29 00:02:37;;;;;;;1.27;1.17;;;5.10;67.40;;;;;;6151045;23;20865;-78
2022/12/29 00:05:05;;;;;;;1.25;1.10;;;5.10;67.70;;;;;;6151602;23;20374;-79
2022/12/29 00:07:32;;;;;;;1.20;1.20;;;5.10;67.80;;;;;;6125193;23;20381;-78
2022/12/29 00:09:59;;;;;;;1.30;1.20;;;5.00;67.80;;;;;;6151638;23;20373;-78
2022/12/29 00:15:36;;;;;;;1.00;1.00;;;5.00;68.10;;;;;;6150792;23;20747;-78
2022/12/29 00:18:00;;;;;;;1.20;1.13;;;5.00;67.60;;;;;;6150403;23;20381;-79
2022/12/29 00:37:08;;;;;;;1.10;1.10;;;4.90;68.70;;;;;;6151363;23;20706;-79
2022/12/29 00:45:06;;;;;;;1.20;1.20;;;4.90;68.90;;;;;;6153472;23;20440;-79
2022/12/29 00:47:33;;;;;;;0.90;0.90;;;4.90;68.80;;;;;;6152807;23;21565;-79
2022/12/29 00:50:00;;;;;;;1.00;0.90;;;4.90;68.20;;;;;;6127518;23;20865;-78
2022/12/29 00:52:27;;;;;;;0.80;0.80;;;5.00;68.00;;;;;;6126871;23;20386;-79
2022/12/29 00:54:54;;;;;;;0.90;0.90;;;5.10;67.50;;;;;;6126890;23;20378;-79
2022/12/29 00:57:21;;;;;;;0.88;0.85;;;5.10;66.90;;;;;;6150902;23;20393;-79
2022/12/29 00:59:48;;;;;;;1.30;0.90;;;5.10;66.60;;;;;;6127700;23;20390;-79
2022/12/29 01:02:14;;;;;;;1.00;0.90;;;5.30;66.00;;;;;;6151181;23;20437;-78
2022/12/29 01:04:42;;;;;;;0.80;0.80;;;5.30;65.70;;;;;;6153136;23;20370;-79
2022/12/29 01:07:09;;;;;;;0.90;0.90;;;5.30;65.70;;;;;;6152168;23;20441;-79
2022/12/29 01:12:40;;;;;;;0.95;0.95;;;5.40;65.00;;;;;;6152107;23;20390;-79
2022/12/29 01:15:09;;;;;;;0.90;0.90;;;5.40;65.00;;;;;;6128178;23;20401;-78
2022/12/29 01:17:36;;;;;;;1.00;0.90;;;5.40;64.90;;;;;;6151921;23;20412;-78
2022/12/29 01:20:03;;;;;;;0.80;0.80;;;5.40;64.40;;;;;;6127736;23;20414;-78
2022/12/29 01:22:30;;;;;;;0.80;0.80;;;5.50;64.30;;;;;;6151953;23;20424;-78
2022/12/29 01:24:57;;;;;;;0.70;0.70;;;5.50;64.00;;;;;;6127594;23;20377;-79
2022/12/29 01:27:24;;;;;;;0.85;0.85;;;5.60;63.50;;;;;;6150681;23;20378;-79
2022/12/29 01:29:51;;;;;;;0.80;0.80;;;5.60;63.30;;;;;;6127392;23;20394;-78
2022/12/29 01:32:18;;;;;;;0.70;0.70;;;5.60;63.60;;;;;;6150827;23;20428;-78
2022/12/29 01:34:45;;;;;;;0.70;0.70;;;5.60;63.10;;;;;;6127693;23;20373;-78
2022/12/29 01:37:12;;;;;;;0.80;0.80;;;5.60;63.40;;;;;;6152677;23;20374;-79
2022/12/29 01:39:39;;;;;;;0.90;0.90;;;5.60;63.40;;;;;;6126584;23;20409;-78
2022/12/29 01:42:17;;;;;;;0.88;0.88;;;5.50;63.80;;;;;;6127406;23;20762;-78
2022/12/29 01:44:53;;;;;;;0.90;0.90;;;5.50;63.60;;;;;;6126370;23;20429;-79
2022/12/29 01:47:30;;;;;;;0.70;0.70;;;5.60;63.30;;;;;;6126179;23;20401;-78
2022/12/29 01:50:01;;;;;;;0.70;0.70;;;5.50;63.60;;;;;;6153043;23;20476;-78
2022/12/29 01:52:31;;;;;;;0.90;0.90;;;5.50;64.00;;;;;;6152280;23;20390;-78
2022/12/29 01:55:01;;;;;;;0.77;0.77;;;5.50;63.40;;;;;;6126547;23;20377;-79
2022/12/29 01:57:34;;;;;;;0.77;0.77;;;5.60;63.00;;;;;;6151932;23;20386;-78
2022/12/29 02:00:11;;;;;;;0.80;0.80;;;5.60;62.80;;;;;;6152309;23;20378;-78
2022/12/29 02:02:38;;;;;;;1.50;0.80;;;5.70;62.40;;;;;;6126289;23;20378;-79
2022/12/29 03:54:18;;;;;;;0.80;0.80;;;4.90;65.90;;;;;;6104230;23;20358;31
2022/12/29 03:56:45;;;;;;;0.70;0.70;;;4.90;66.40;;;;;;6116313;23;20472;-75
2022/12/29 03:59:12;;;;;;;0.73;0.73;;;4.90;66.40;;;;;;6081280;23;20785;-74
2022/12/29 04:01:40;;;;;;;0.75;0.75;;;4.70;67.10;;;;;;6091900;23;20405;-74
2022/12/29 04:04:07;;;;;;;0.60;0.60;;;4.70;67.30;;;;;;6091043;23;20381;-75
2022/12/29 04:06:34;;;;;;;0.75;0.75;;;4.60;68.00;;;;;;6092320;23;20413;-74
2022/12/29 04:09:01;;;;;;;0.70;0.70;;;4.60;67.80;;;;;;6091848;23;20382;-76
2022/12/29 04:11:28;;;;;;;0.50;0.50;;;4.60;67.40;;;;;;6080472;23;20833;-74
2022/12/29 04:13:58;;;;;;;0.75;0.75;;;4.60;67.40;;;;;;6092726;23;20377;-71
2022/12/29 04:16:26;;;;;;;0.75;0.75;;;4.60;67.40;;;;;;6091304;23;20377;-71
2022/12/29 04:18:54;;;;;;;0.77;0.77;;;4.60;68.00;;;;;;6091826;23;20432;-71
2022/12/29 04:21:21;;;;;;;0.82;0.82;;;4.50;68.20;;;;;;6091439;23;20412;-71
2022/12/29 04:23:48;;;;;;;0.80;0.80;;;4.50;68.60;;;;;;6090493;23;20390;-72
2022/12/29 04:26:16;;;;;;;0.70;0.70;;;4.40;68.80;;;;;;6092087;23;20875;-72
2022/12/29 04:28:43;;;;;;;0.70;0.70;;;4.40;68.80;;;;;;6093822;23;20433;-72
2022/12/29 04:31:10;;;;;;;0.73;0.73;;;4.40;68.70;;;;;;6090918;23;20389;-71
2022/12/29 04:33:39;;;;;;;0.70;0.70;;;4.40;68.80;;;;;;6092097;23;20384;-71
2022/12/29 04:36:06;;;;;;;0.90;0.70;;;4.40;68.60;;;;;;6066816;23;20385;-75
2022/12/29 04:38:33;;;;;;;0.80;0.80;;;4.50;68.50;;;;;;6092291;23;20900;-74
2022/12/29 04:41:01;;;;;;;0.77;0.77;;;4.50;68.20;;;;;;6092406;23;20386;-74
2022/12/29 04:43:28;;;;;;;0.80;0.80;;;4.50;68.10;;;;;;6090556;23;20453;-73
2022/12/29 04:45:55;;;;;;;0.60;0.60;;;4.60;67.40;;;;;;6093223;23;20389;-75
2022/12/29 04:48:23;;;;;;;0.70;0.70;;;4.60;67.70;;;;;;6090929;23;20381;-76
2022/12/29 04:50:51;;;;;;;0.70;0.70;;;4.70;67.30;;;;;;6115959;23;20381;-74
2022/12/29 04:53:18;;;;;;;0.70;0.70;;;4.70;67.20;;;;;;6082200;23;20391;-74
2022/12/29 04:55:49;;;;;;;0.77;0.77;;;4.70;67.30;;;;;;6091751;23;20381;-74
2022/12/29 04:58:17;;;;;;;0.70;0.70;;;4.70;67.00;;;;;;6077564;23;20709;-74
2022/12/29 05:00:49;;;;;;;0.70;0.70;;;4.70;66.80;;;;;;6091445;23;20441;-74
2022/12/29 05:03:16;;;;;;;0.80;0.80;;;4.70;66.60;;;;;;6090733;23;20458;-75
2022/12/29 05:05:44;;;;;;;0.70;0.70;;;4.70;67.00;;;;;;6091362;23;20485;-75
2022/12/29 05:08:11;;;;;;;0.70;0.70;;;4.70;66.80;;;;;;6092061;23;20381;-74
2022/12/29 05:10:38;;;;;;;0.70;0.70;;;4.60;67.20;;;;;;6090795;23;20416;-74
2022/12/29 05:13:05;;;;;;;0.70;0.70;;;4.60;67.60;;;;;;6079537;23;20449;-74
2022/12/29 05:15:33;;;;;;;0.70;0.70;;;4.60;67.60;;;;;;6090657;23;20437;-74
2022/12/29 05:18:01;;;;;;;0.82;0.82;;;4.60;67.30;;;;;;6091356;23;20468;-74
2022/12/29 05:20:28;;;;;;;0.70;0.70;;;4.70;67.00;;;;;;6090762;23;20392;-74
2022/12/29 05:22:55;;;;;;;0.70;0.70;;;4.60;67.50;;;;;;6091739;23;20754;-74
2022/12/29 05:25:22;;;;;;;0.80;0.80;;;4.50;67.70;;;;;;6090220;23;20815;-75
2022/12/29 05:27:49;;;;;;;0.90;0.90;;;4.50;67.70;;;;;;6081268;23;20869;-74
2022/12/29 05:30:16;;;;;;;0.63;0.63;;;4.50;68.00;;;;;;6091445;23;20381;-74
2022/12/29 05:32:43;;;;;;;0.70;0.70;;;4.50;68.10;;;;;;6078415;23;20749;-74
2022/12/29 05:35:11;;;;;;;0.63;0.63;;;4.50;68.20;;;;;;6074509;23;20381;-74
2022/12/29 05:37:38;;;;;;;0.75;0.70;;;4.40;68.40;;;;;;6092429;23;20632;-74
2022/12/29 05:40:05;;;;;;;0.60;0.60;;;4.40;68.50;;;;;;6091266;23;20766;-75
2022/12/29 05:42:33;;;;;;;0.73;0.73;;;4.40;68.40;;;;;;6092480;23;20416;-74
2022/12/29 05:45:00;;;;;;;1.00;0.70;;;4.40;68.70;;;;;;6094709;23;20377;-74
2022/12/29 05:47:28;;;;;;;0.80;0.80;;;4.40;68.70;;;;;;6092223;23;20380;-74
2022/12/29 05:49:56;;;;;;;0.70;0.70;;;4.30;68.90;;;;;;6093232;23;20746;-75
2022/12/29 05:52:23;;;;;;;0.68;0.68;;;4.40;68.60;;;;;;6092248;23;20405;-75
2022/12/29 05:54:50;;;;;;;0.90;0.90;;;4.40;68.40;;;;;;6093014;23;20373;-75
2022/12/29 05:57:17;;;;;;;0.77;0.77;;;4.40;68.10;;;;;;6092913;23;20409;-74
2022/12/29 05:59:44;;;;;;;0.73;0.73;;;4.40;68.90;;;;;;6092283;23;20381;-74
2022/12/29 06:02:11;;;;;;;0.90;0.90;;;4.30;68.90;;;;;;6093054;23;20385;-74
2022/12/29 06:04:38;;;;;;;0.73;0.73;;;4.30;69.00;;;;;;6092242;23;20846;-74
2022/12/29 06:07:05;;;;;;;0.80;0.80;;;4.20;69.30;;;;;;6092305;23;20393;-73
2022/12/29 06:09:32;;;;;;;0.80;0.80;;;4.20;69.60;;;;;;6093504;23;20405;-74
2022/12/29 06:11:59;;;;;;;0.80;0.80;;;4.20;69.40;;;;;;6093009;23;20713;-74
2022/12/29 06:14:28;;;;;;;0.98;0.75;;;4.20;69.20;;;;;;6084423;23;20419;-74
2022/12/29 06:16:55;;;;;;;0.82;0.82;;;4.20;69.30;;;;;;6090918;23;20880;-74
2022/12/29 06:19:23;;;;;;;0.70;0.70;;;4.20;69.50;;;;;;6092609;23;20419;-74
2022/12/29 06:21:51;;;;;;;0.80;0.80;;;4.10;69.80;;;;;;6091624;23;20413;-74
2022/12/29 06:24:18;;;;;;;0.77;0.77;;;4.10;70.00;;;;;;6092967;23;20386;-74
2022/12/29 06:26:45;;;;;;;0.80;0.80;;;4.00;70.50;;;;;;6077799;23;20749;-74
2022/12/29 06:29:16;;;;;;;0.90;0.73;;;4.00;70.50;;;;;;6072512;23;20385;-73
2022/12/29 06:31:45;;;;;;;0.88;0.88;;;4.00;70.20;;;;;;6078423;23;20754;-74
2022/12/29 06:34:13;;;;;;;0.85;0.85;;;4.00;70.90;;;;;;6069005;23;20378;-74
2022/12/29 06:36:39;;;;;;;0.65;0.65;;;3.90;71.20;;;;;;6090377;23;20910;-74
2022/12/29 06:39:06;;;;;;;0.70;0.70;;;4.00;71.10;;;;;;6093969;23;20448;-74
2022/12/29 06:41:33;;;;;;;0.90;0.90;;;4.00;70.70;;;;;;6092296;23;20390;-74
2022/12/29 06:44:03;;;;;;;0.80;0.80;;;4.00;70.70;;;;;;6091566;23;20377;-74
2022/12/29 06:46:30;;;;;;;0.70;0.70;;;4.10;70.60;;;;;;6069559;23;20381;-73
2022/12/29 06:48:57;;;;;;;0.82;0.82;;;4.10;70.30;;;;;;6093084;23;20388;-73
2022/12/29 06:51:25;;;;;;;0.80;0.80;;;4.10;70.00;;;;;;6092123;23;20412;-74
2022/12/29 06:53:53;;;;;;;0.80;0.80;;;4.20;69.40;;;;;;6067126;23;20427;-74
2022/12/29 06:56:20;;;;;;;0.70;0.70;;;4.20;69.50;;;;;;6091886;23;20399;-74
2022/12/29 06:58:50;;;;;;;0.70;0.70;;;4.20;69.40;;;;;;6090794;23;23136;-74
2022/12/29 07:01:18;;;;;;;0.68;0.68;;;4.20;70.00;;;;;;6093444;23;20390;-75
2022/12/29 07:03:45;;;;;;;0.98;0.98;;;4.30;69.20;;;;;;6074333;23;20395;-74
2022/12/29 07:06:15;;;;;;;0.90;0.80;;;4.30;69.30;;;;;;6069068;23;20503;-74
2022/12/29 07:08:43;;;;;;;0.70;0.70;;;4.30;69.10;;;;;;6093502;23;20511;-75
2022/12/29 07:11:10;;;;;;;0.80;0.80;;;4.30;69.30;;;;;;6090885;23;20416;-74
2022/12/29 07:13:37;;;;;;;0.80;0.80;;;4.30;69.20;;;;;;6094160;23;20444;-74
2022/12/29 07:16:08;;;;;;;0.90;0.90;;;4.30;69.40;;;;;;6090397;23;20452;-73
2022/12/29 07:18:38;;;;;;;0.90;0.90;;;4.30;69.60;;;;;;6091554;23;20438;-75
2022/12/29 07:21:05;;;;;;;0.90;0.90;;;4.30;69.30;;;;;;6090854;23;20428;-74
2022/12/29 07:23:33;;;;;;;0.85;0.85;;;4.40;68.90;;;;;;6091442;23;20400;-74
2022/12/29 07:26:07;;;;;;;0.90;0.90;;;4.40;68.50;;;;;;6090648;23;20818;-74
2022/12/29 07:28:35;;;;;;;0.90;0.90;;;4.40;68.60;;;;;;6091335;23;20412;-74
2022/12/29 07:31:02;;;;;;;0.70;0.70;;;4.50;68.60;;;;;;6087907;23;21030;-74
2022/12/29 07:33:30;;;;;;;0.80;0.80;;;4.60;68.30;;;;;;6090030;23;20432;-72
2022/12/29 07:35:57;;;;;;;0.80;0.80;;;4.70;67.80;;;;;;6090588;23;20700;-71
2022/12/29 07:38:24;;;;;;;0.80;0.80;;;4.80;67.00;;;;;;6091594;23;20408;-71
2022/12/29 07:40:55;;;;;;;0.75;0.75;;;4.90;66.80;;;;;;6066879;23;20849;-74
2022/12/29 07:43:25;;;;;;;0.90;0.90;;;4.90;66.90;;;;;;6091715;23;20486;-73
2022/12/29 07:45:52;;;;;;;0.80;0.80;;;5.00;66.30;;;;;;6081183;23;20903;-74
2022/12/29 07:48:19;;;;;;;0.80;0.80;;;5.10;66.40;;;;;;6093179;23;20448;-74
2022/12/29 07:50:46;;;;;;;0.70;0.70;;;5.10;66.00;;;;;;6092700;23;20396;-73
2022/12/29 07:53:14;;;;;;;0.70;0.70;;;5.10;66.40;;;;;;6092228;23;20429;-74
2022/12/29 07:55:41;;;;;;;0.70;0.70;;;5.20;66.20;;;;;;6093476;23;20405;-75
2022/12/29 07:58:08;;;;;;;0.80;0.80;;;5.20;67.30;;;;;;6066834;23;20381;-74
2022/12/29 08:00:35;;;;;;;0.80;0.80;;;5.30;65.60;;;;;;6068143;23;20382;-74
2022/12/29 08:03:02;;;;;;;1.10;1.00;;;5.30;65.80;;;;;;6066344;23;20412;-74
2022/12/29 08:05:32;;;;;;;0.80;0.80;;;5.40;65.40;;;;;;6093135;23;20370;-74
2022/12/29 08:08:01;;;;;;;0.80;0.80;;;5.50;65.60;;;;;;6067135;23;20381;-71
2022/12/29 08:10:28;;;;;;;0.80;0.80;;;5.50;65.60;;;;;;6093148;23;20457;-73
2022/12/29 08:12:58;;;;;;;0.80;0.80;;;5.60;65.10;;;;;;6092146;23;20389;-74
2022/12/29 08:15:26;;;;;;;0.87;0.87;;;5.70;64.70;;;;;;6038308;23;20494;-74
2022/12/29 08:18:00;;;;;;;0.82;0.82;;;5.80;64.80;;;;;;6044327;23;20865;-74
2022/12/29 08:20:27;;;;;;;0.80;0.80;;;5.80;64.80;;;;;;6093144;23;20381;-74
2022/12/29 08:22:54;;;;;;;0.75;0.75;;;6.00;64.20;;;;;;6067861;23;20868;-74
2022/12/29 08:25:24;;;;;;;0.80;0.70;;;6.00;63.80;;;;;;6083468;23;20457;-74
2022/12/29 08:27:53;;;;;;;0.75;0.75;;;6.20;63.40;;;;;;6043935;23;20377;-74
2022/12/29 08:30:23;;;;;;;0.80;0.70;;;6.30;62.80;;;;;;6090369;23;20381;-74
2022/12/29 08:32:50;;;;;;;0.70;0.70;;;6.50;62.20;;;;;;6064919;23;20388;-74
2022/12/29 08:35:17;;;;;;;0.70;0.70;;;6.70;61.40;;;;;;6066655;23;20432;-74
2022/12/29 08:37:44;;;;;;;0.60;0.60;;;6.90;60.60;;;;;;6067945;23;20392;-74
2022/12/29 08:40:13;;;;;;;0.65;0.65;;;7.10;60.10;;;;;;6089647;23;20400;-74
2022/12/29 08:42:40;;;;;;;0.65;0.65;;;7.30;59.00;;;;;;6068058;23;20389;-74
2022/12/29 08:45:08;;;;;;;0.85;0.70;;;7.40;58.50;;;;;;6066546;23;20386;-74
2022/12/29 08:47:35;;;;;;;0.65;0.65;;;7.40;58.40;;;;;;6072393;23;20900;-72
2022/12/29 08:50:04;;;;;;;0.63;0.63;;;7.50;58.60;;;;;;6049855;23;20717;-71
2022/12/29 08:52:31;;;;;;;0.65;0.65;;;7.50;57.50;;;;;;6060875;23;20377;-74
2022/12/29 08:54:58;;;;;;;0.60;0.60;;;7.50;56.90;;;;;;6053945;23;20714;-71
2022/12/29 08:57:25;;;;;;;0.70;0.70;;;7.50;56.50;;;;;;6090522;23;20762;-71
2022/12/29 08:59:52;;;;;;;0.60;0.60;;;7.30;57.50;;;;;;6067389;23;20389;-71
2022/12/29 09:02:18;;;;;;;0.70;0.70;;;7.30;57.90;;;;;;6066271;23;20460;-72
2022/12/29 09:04:51;;;;;;;0.70;0.70;;;7.10;58.50;;;;;;6092916;23;20389;-73
2022/12/29 09:07:18;;;;;;;0.60;0.60;;;7.00;58.30;;;;;;6067180;23;20445;-74
2022/12/29 09:09:45;;;;;;;0.70;0.70;;;7.00;58.70;;;;;;6093891;23;20766;-74
2022/12/29 09:12:12;;;;;;;0.80;0.80;;;7.00;58.40;;;;;;6064614;23;20444;-72
2022/12/29 09:14:38;;;;;;;0.60;0.60;;;7.00;58.10;;;;;;6092278;23;20381;-71
2022/12/29 09:19:51;;;;;;;0.85;0.70;;;7.00;58.80;;;;;;6092328;23;20381;-74
2022/12/29 09:22:18;;;;;;;0.70;0.70;;;7.00;58.60;;;;;;6090514;23;20460;-75
2022/12/29 09:24:45;;;;;;;0.80;0.80;;;7.00;58.70;;;;;;6093142;23;20432;-74
2022/12/29 09:27:12;;;;;;;1.13;0.70;;;7.00;58.80;;;;;;6068453;23;20392;-74
2022/12/29 09:29:39;;;;;;;0.70;0.70;;;7.00;59.60;;;;;;6093457;23;20381;-71
2022/12/29 09:32:07;;;;;;;0.70;0.70;;;6.90;59.40;;;;;;6094154;23;20875;-71
2022/12/29 09:34:41;;;;;;;0.90;0.90;;;6.90;58.90;;;;;;6093795;23;20378;-72
2022/12/29 09:37:08;;;;;;;1.20;1.10;;;7.00;59.00;;;;;;6091530;23;20452;-72
2022/12/29 09:39:34;;;;;;;0.83;0.83;;;6.90;58.70;;;;;;6092924;23;20473;-72
2022/12/29 09:42:06;;;;;;;0.85;0.85;;;7.00;58.70;;;;;;6094732;23;20440;-74
2022/12/29 09:44:46;;;;;;;0.80;0.80;;;7.00;59.20;;;;;;6093548;23;20779;-74
2022/12/29 09:47:15;;;;;;;0.88;0.80;;;6.90;59.80;;;;;;6069322;23;20841;-75
2022/12/29 09:50:14;;;;;;;0.70;0.70;;;6.90;59.70;;;;;;6068998;23;20460;-74
2022/12/29 09:53:04;;;;;;;0.90;0.90;;;6.90;59.20;;;;;;6045387;23;20392;-75
2022/12/29 09:55:44;;;;;;;0.90;0.90;;;6.90;60.00;;;;;;6082420;23;20385;-74
2022/12/29 09:58:21;;;;;;;0.90;0.90;;;6.90;59.90;;;;;;6094401;23;20381;-72
2022/12/29 10:01:07;;;;;;;0.80;0.80;;;6.90;59.00;;;;;;6092877;23;20381;-74
2022/12/29 10:03:51;;;;;;;0.70;0.70;;;6.90;60.20;;;;;;6067802;23;20714;-73
2022/12/29 10:06:41;;;;;;;0.63;0.63;;;6.90;59.10;;;;;;6094283;23;20389;-74
2022/12/29 10:09:45;;;;;;;0.70;0.70;;;6.90;59.40;;;;;;6069482;23;20414;-74
2022/12/29 10:12:52;;;;;;;0.77;0.70;;;6.90;59.00;;;;;;6093428;23;20702;-74
2022/12/29 10:15:55;;;;;;;0.68;0.63;;;6.90;59.00;;;;;;6092445;23;20401;-73
2022/12/29 10:18:39;;;;;;;0.70;0.70;;;6.90;59.50;;;;;;6068235;23;20429;-75
2022/12/29 10:21:27;;;;;;;0.90;0.80;;;6.90;58.90;;;;;;6068128;23;20746;-74
2022/12/29 10:23:56;;;;;;;0.80;0.80;;;6.90;59.10;;;;;;6068345;23;20401;-74
2022/12/29 10:26:36;;;;;;;0.80;0.80;;;6.80;59.70;;;;;;6093520;23;20929;-74
2022/12/29 10:29:05;;;;;;;0.80;0.80;;;6.80;59.40;;;;;;6069246;23;20381;-75
2022/12/29 10:31:59;;;;;;;0.90;0.90;;;6.80;59.30;;;;;;6092959;23;20399;-74
2022/12/29 10:34:44;;;;;;;1.00;0.70;;;6.80;59.60;;;;;;6090500;23;20718;-74
2022/12/29 10:37:29;;;;;;;0.75;0.75;;;6.80;60.00;;;;;;6093402;23;20762;-74
2022/12/29 10:40:03;;;;;;;0.70;0.70;;;6.80;59.70;;;;;;6094347;23;20905;-74
2022/12/29 10:42:44;;;;;;;0.73;0.70;;;6.80;59.40;;;;;;6067764;23;20374;-74
2022/12/29 10:45:14;;;;;;;0.70;0.70;;;6.80;59.30;;;;;;6067866;23;20440;-74
2022/12/29 10:47:59;;;;;;;0.70;0.70;;;6.80;59.50;;;;;;6094323;23;20373;-74
2022/12/29 10:50:28;;;;;;;0.73;0.73;;;6.90;59.50;;;;;;6092865;23;20842;-74
2022/12/29 10:53:03;;;;;;;0.70;0.70;;;6.90;59.10;;;;;;6068225;23;20854;-74
2022/12/29 10:55:36;;;;;;;0.70;0.70;;;7.00;59.60;;;;;;6067499;23;20425;-74
2022/12/29 10:58:06;;;;;;;1.20;0.73;;;7.10;59.40;;;;;;6068939;23;20382;-74
2022/12/29 11:00:33;;;;;;;0.77;0.77;;;7.30;58.50;;;;;;6067742;23;20365;-74
2022/12/29 11:03:38;;;;;;;0.70;0.70;;;7.60;58.20;;;;;;6068591;23;20680;-74
2022/12/29 11:06:13;;;;;;;0.80;0.80;;;7.90;57.40;;;;;;6067615;23;20397;-74
2022/12/29 11:08:50;;;;;;;0.70;0.70;;;8.20;56.20;;;;;;6092448;23;20751;-75
2022/12/29 11:11:42;;;;;;;0.80;0.80;;;8.50;56.30;;;;;;6067728;23;20457;-74
2022/12/29 11:14:25;;;;;;;0.80;0.80;;;8.70;55.40;;;;;;6067411;23;20436;-74
2022/12/29 11:17:01;;;;;;;0.90;0.80;;;8.90;55.30;;;;;;6067348;23;20448;-74
2022/12/29 11:19:30;;;;;;;0.75;0.75;;;9.20;54.30;;;;;;6067628;23;20397;-74
2022/12/29 11:22:25;;;;;;;0.68;0.68;;;9.40;54.40;;;;;;6091048;23;20413;-75
2022/12/29 11:24:54;;;;;;;0.60;0.60;;;9.40;53.80;;;;;;6090321;23;20759;-75
2022/12/29 11:27:26;;;;;;;0.70;0.70;;;9.70;54.00;;;;;;6067836;23;20389;-74
2022/12/29 11:29:54;;;;;;;0.70;0.70;;;9.80;52.50;;;;;;6092158;23;20437;-75
2022/12/29 11:32:31;;;;;;;0.60;0.60;;;10.00;51.70;;;;;;6091747;23;20530;-75
2022/12/29 11:34:58;;;;;;;0.60;0.60;;;10.10;51.80;;;;;;6066708;23;20448;-75
2022/12/29 11:37:40;;;;;;;2.70;0.65;;;10.30;51.90;;;;;;6092406;23;20833;-74
2022/12/29 11:40:20;;;;;;;0.70;0.70;;;10.50;52.50;;;;;;6090994;23;20687;-75
2022/12/29 11:43:03;;;;;;;0.60;0.60;;;10.70;51.80;;;;;;6092025;23;20445;-76
2022/12/29 11:45:34;;;;;;;0.60;0.60;;;10.90;52.10;;;;;;6067630;23;20381;-74
2022/12/29 11:48:08;;;;;;;0.70;0.70;;;11.00;52.70;;;;;;6092178;23;20374;-74
2022/12/29 11:50:40;;;;;;;0.60;0.60;;;11.10;52.70;;;;;;6068408;23;20374;-74
2022/12/29 11:53:27;;;;;;;0.60;0.60;;;11.20;53.20;;;;;;6066175;23;20386;-75
2022/12/29 11:55:58;;;;;;;0.80;0.80;;;11.30;53.30;;;;;;6082643;23;20416;-76
2022/12/29 11:58:34;;;;;;;1.10;0.80;;;11.50;52.40;;;;;;6093394;23;20381;-74
2022/12/29 12:01:12;;;;;;;0.60;0.60;;;11.60;52.40;;;;;;6091596;23;20909;-74
2022/12/29 12:03:48;;;;;;;0.60;0.60;;;11.70;51.20;;;;;;6093363;23;20445;-74
2022/12/29 12:06:19;;;;;;;0.70;0.70;;;11.70;51.90;;;;;;6092477;23;20382;-75
2022/12/29 12:08:54;;;;;;;0.75;0.75;;;11.80;52.20;;;;;;6093049;23;20378;-75
2022/12/29 12:11:36;;;;;;;0.75;0.75;;;11.80;51.60;;;;;;6090910;23;20417;-74
2022/12/29 12:14:19;;;;;;;0.70;0.70;;;12.00;52.20;;;;;;6091784;23;20785;-72
2022/12/29 12:16:54;;;;;;;0.75;0.75;;;12.00;50.90;;;;;;6091816;23;20448;-72
2022/12/29 12:19:48;;;;;;;0.60;0.60;;;12.10;51.10;;;;;;6090774;23;20717;-72
2022/12/29 12:22:25;;;;;;;0.50;0.50;;;12.30;51.20;;;;;;6092076;23;20460;-74
2022/12/29 12:25:01;;;;;;;0.50;0.50;;;12.30;50.70;;;;;;6091625;23;20460;-74
2022/12/29 12:27:39;;;;;;;0.50;0.50;;;12.30;48.50;;;;;;6091089;23;20365;-75
2022/12/29 12:30:18;;;;;;;0.70;0.70;;;12.40;48.60;;;;;;6090728;23;20385;-75
2022/12/29 12:32:52;;;;;;;0.60;0.60;;;12.30;48.60;;;;;;6091691;23;20374;-75
2022/12/29 12:35:45;;;;;;;0.60;0.60;;;12.30;49.40;;;;;;6090969;23;20378;-75
2022/12/29 12:38:38;;;;;;;0.50;0.50;;;12.40;48.70;;;;;;6080081;23;20392;-74
2022/12/29 12:41:11;;;;;;;0.57;0.50;;;12.40;48.00;;;;;;6091686;23;20857;-75
2022/12/29 12:44:12;;;;;;;0.50;0.50;;;12.80;47.90;;;;;;6094955;23;20383;-72
2022/12/29 12:46:53;;;;;;;0.43;0.43;;;13.10;47.30;;;;;;6093119;23;21556;-75
2022/12/29 12:50:02;;;;;;;0.60;0.60;;;13.30;46.50;;;;;;6092621;23;20722;-74
2022/12/29 12:52:56;;;;;;;0.60;0.60;;;12.70;45.90;;;;;;6116931;23;20401;-72
2022/12/29 12:55:53;;;;;;;0.47;0.47;;;12.60;46.30;;;;;;6093862;23;20853;-74
2022/12/29 12:58:51;;;;;;;0.50;0.50;;;13.00;47.50;;;;;;6068734;23;20381;-75
2022/12/29 13:01:45;;;;;;;0.60;0.60;;;13.40;47.20;;;;;;6068543;23;20386;-75
2022/12/29 13:04:40;;;;;;;0.75;0.65;;;13.70;46.60;;;;;;6068995;23;20381;-76
2022/12/29 13:07:24;;;;;;;0.50;0.50;;;13.80;45.80;;;;;;6068904;23;20381;-75
2022/12/29 13:10:22;;;;;;;0.60;0.60;;;13.70;45.50;;;;;;6093998;23;20389;-73
2022/12/29 13:13:12;;;;;;;0.60;0.60;;;13.80;45.30;;;;;;6068988;23;20377;-73
2022/12/29 13:15:51;;;;;;;1.30;0.70;;;13.60;45.60;;;;;;6069312;23;20381;-73
2022/12/29 13:18:18;;;;;;;0.52;0.50;;;13.60;46.70;;;;;;6094075;23;20369;-73
2022/12/29 13:21:28;;;;;;;0.60;0.60;;;13.60;45.10;;;;;;6069905;23;20369;-73
2022/12/29 13:24:23;;;;;;;0.90;0.60;;;13.70;45.40;;;;;;6041559;23;20377;-72
2022/12/29 13:27:36;;;;;;;0.60;0.60;;;13.50;45.00;;;;;;6082409;23;20400;-72
2022/12/29 13:30:05;;;;;;;1.25;1.23;;;13.30;44.20;;;;;;6064317;23;20385;-72
2022/12/29 13:32:53;;;;;;;1.40;1.30;;;13.10;49.30;;;;;;6094574;23;20429;-73
2022/12/29 13:35:37;;;;;;;1.13;1.13;;;13.00;51.00;;;;;;6069009;23;20440;-74
2022/12/29 13:38:10;;;;;;;1.30;1.20;;;12.20;52.10;;;;;;6093372;23;20440;-72
2022/12/29 13:40:43;;;;;;;1.20;1.00;;;11.60;53.90;;;;;;6094903;23;20373;-73
2022/12/29 13:43:12;;;;;;;1.48;1.38;;;11.50;55.30;;;;;;6068435;23;20398;-73
2022/12/29 13:45:40;;;;;;;1.23;1.13;;;11.30;55.00;;;;;;6094410;23;20449;-73
2022/12/29 13:48:19;;;;;;;0.93;0.93;;;11.20;55.30;;;;;;6067949;23;20381;-73
2022/12/29 13:50:55;;;;;;;0.98;0.98;;;11.60;56.10;;;;;;6068431;23;20404;-72
2022/12/29 13:53:53;;;;;;;0.90;0.90;;;11.90;54.80;;;;;;6093467;23;20445;-73
2022/12/29 13:56:43;;;;;;;0.80;0.80;;;12.00;54.10;;;;;;6067787;23;20405;-72
2022/12/29 13:59:44;;;;;;;1.10;0.90;;;12.20;53.30;;;;;;6068157;23;20706;-73
2022/12/29 14:02:31;;;;;;;0.80;0.80;;;12.40;52.50;;;;;;6067957;23;20861;-73
2022/12/29 14:05:01;;;;;;;0.98;0.98;;;12.30;53.50;;;;;;6068275;23;20752;-73
2022/12/29 14:07:35;;;;;;;1.00;1.00;;;12.20;54.50;;;;;;6068956;23;20384;-72
2022/12/29 14:10:02;;;;;;;1.10;1.00;;;11.90;55.70;;;;;;6093232;23;20378;-73
2022/12/29 14:12:43;;;;;;;1.03;1.03;;;11.70;56.90;;;;;;6094141;23;20381;-72
2022/12/29 14:15:10;;;;;;;1.00;1.00;;;11.50;58.40;;;;;;6068175;23;20382;-72
2022/12/29 14:17:39;;;;;;;1.20;1.20;;;11.50;58.60;;;;;;6093784;23;20385;-73
2022/12/29 14:20:21;;;;;;;1.50;1.40;;;11.20;59.40;;;;;;6093108;23;20433;-73
2022/12/29 14:23:10;;;;;;;1.30;1.20;;;11.20;60.10;;;;;;6094223;23;20388;-72
2022/12/29 14:25:56;;;;;;;1.40;1.30;;;11.30;60.00;;;;;;6068259;23;20469;-73
2022/12/29 14:28:27;;;;;;;1.63;1.50;;;11.20;60.40;;;;;;6068021;23;20856;-72
2022/12/29 14:30:59;;;;;;;1.40;1.30;;;11.30;60.60;;;;;;6069154;23;20373;-71
2022/12/29 14:33:29;;;;;;;2.38;2.17;;;11.30;60.00;;;;;;6068022;23;20373;-72
2022/12/29 14:36:05;;;;;;;1.33;1.30;;;11.20;60.00;;;;;;6093782;23;20846;-72
2022/12/29 14:38:32;;;;;;;1.65;1.55;;;11.10;60.40;;;;;;6067909;23;20924;-75
2022/12/29 14:41:24;;;;;;;1.73;1.63;;;11.10;60.50;;;;;;6068686;23;20432;-72
2022/12/29 14:44:18;;;;;;;1.33;1.25;;;11.30;60.10;;;;;;6066145;23;21190;-74
2022/12/29 14:46:59;;;;;;;1.45;1.35;;;11.30;60.00;;;;;;6059427;23;20381;-74
2022/12/29 14:49:30;;;;;;;1.60;1.50;;;11.50;60.00;;;;;;6093169;23;20438;-74
2022/12/29 14:52:20;;;;;;;1.50;1.40;;;11.70;59.70;;;;;;6067826;23;20377;-75
2022/12/29 14:55:07;;;;;;;1.60;1.50;;;11.60;59.50;;;;;;6067520;23;20418;-74
2022/12/29 14:57:42;;;;;;;1.50;1.40;;;11.50;59.90;;;;;;6077031;23;20381;-75
2022/12/29 15:00:23;;;;;;;1.70;1.60;;;11.50;60.00;;;;;;6093636;23;20382;-74
2022/12/29 15:03:03;;;;;;;1.63;1.52;;;11.70;59.60;;;;;;6066920;23;20730;-74
2022/12/29 15:05:40;;;;;;;1.70;1.60;;;11.80;59.60;;;;;;6093744;23;20760;-74
2022/12/29 15:08:08;;;;;;;1.43;1.33;;;11.90;58.90;;;;;;6067931;23;20449;-75
2022/12/29 15:10:59;;;;;;;1.80;1.70;;;12.00;58.20;;;;;;6093137;23;20437;-75
2022/12/29 15:13:38;;;;;;;1.90;1.80;;;11.90;58.00;;;;;;6067216;23;20377;-72
2022/12/29 15:16:23;;;;;;;1.73;1.63;;;12.00;58.00;;;;;;6092508;23;20374;-74
2022/12/29 15:18:50;;;;;;;1.40;1.35;;;12.10;57.90;;;;;;6093232;23;20377;-74
2022/12/29 15:21:21;;;;;;;1.88;1.77;;;12.10;57.90;;;;;;6068064;23;20421;-75
2022/12/29 15:23:49;;;;;;;1.77;1.67;;;12.00;57.40;;;;;;6067576;23;20381;-75
2022/12/29 15:26:22;;;;;;;1.30;1.20;;;11.90;57.70;;;;;;6091530;23;20385;-72
2022/12/29 15:28:51;;;;;;;1.00;1.00;;;11.80;58.30;;;;;;6092086;23;20714;-72
2022/12/29 15:31:21;;;;;;;1.05;1.05;;;11.60;58.70;;;;;;6065816;23;20377;-73
2022/12/29 15:34:10;;;;;;;1.05;1.05;;;11.50;59.60;;;;;;6069607;23;20412;-77
2022/12/29 15:36:39;;;;;;;1.50;1.40;;;11.30;60.10;;;;;;6091992;23;20436;-74
2022/12/29 15:39:41;;;;;;;1.10;1.00;;;11.20;60.60;;;;;;6093238;23;20383;-74
2022/12/29 15:42:45;;;;;;;1.17;1.17;;;11.10;61.20;;;;;;5976802;24;20451;-75
2022/12/29 15:45:14;;;;;;;1.60;1.50;;;10.70;61.00;;;;;;6067493;23;20905;-75